• Join FlightAware (Why Join?)
  • Login
  • US Flag 
08:24PM EDT


 

Airport Tracker/Info


-or-


 

Live Flight TrackerFlight Track Log ✈ CSN6406 ✈ 21-Jun-2013 ✈ ZSQD / TAO - ZGKL / KWL

Flight Track Log - Related Links

Times and Time Zones

All times are in EDT time to prevent confusion due to time zone crossing. See the CSN6406 flight status page for this flight to view local times or setup timezone preferences in your user account.

Time Position Orientation Groundspeed Altitude Reporting Facility
EDT Latitude Longitude Course Direction KTS MPH feet Rate Location/Type
09:14AM 36.1827 120.2828 222° Southwest  Level Estimated
09:15AM 36.0992 120.1914 222° Southwest  Level Estimated
09:16AM 36.0157 120.1001 221° Southwest  Level Estimated
09:17AM 35.9321 120.0091 221° Southwest  Level Estimated
09:18AM 35.8484 119.9182 221° Southwest  Level Estimated
09:19AM 35.7646 119.8275 221° Southwest  Level Estimated
09:20AM 35.6808 119.7371 221° Southwest  Level Estimated
09:21AM 35.5970 119.6468 221° Southwest  Level Estimated
09:22AM 35.5130 119.5567 221° Southwest  Level Estimated
09:23AM 35.4290 119.4668 221° Southwest  Level Estimated
09:24AM 35.3449 119.3770 221° Southwest  Level Estimated
09:25AM 35.2607 119.2875 221° Southwest  Level Estimated
09:26AM 35.1765 119.1981 221° Southwest  Level Estimated
09:27AM 35.0923 119.1090 221° Southwest  Level Estimated
09:28AM 35.0079 119.0200 221° Southwest  Level Estimated
09:29AM 34.9235 118.9312 221° Southwest  Level Estimated
09:30AM 34.8390 118.8426 221° Southwest  Level Estimated
09:31AM 34.7545 118.7541 221° Southwest  Level Estimated
09:32AM 34.6699 118.6659 221° Southwest  Level Estimated
09:33AM 34.5852 118.5778 221° Southwest  Level Estimated
09:34AM 34.5005 118.4899 221° Southwest  Level Estimated
09:35AM 34.4157 118.4022 220° Southwest  Level Estimated
09:36AM 34.3308 118.3147 220° Southwest  Level Estimated
09:37AM 34.2459 118.2273 220° Southwest  Level Estimated
09:38AM 34.1609 118.1401 220° Southwest  Level Estimated
09:39AM 34.0759 118.0531 220° Southwest  Level Estimated
09:40AM 33.9908 117.9663 220° Southwest  Level Estimated
09:41AM 33.9056 117.8796 220° Southwest  Level Estimated
09:42AM 33.8204 117.7931 220° Southwest  Level Estimated
09:43AM 33.7351 117.7068 220° Southwest  Level Estimated
09:44AM 33.6498 117.6207 220° Southwest  Level Estimated
09:45AM 33.5644 117.5347 220° Southwest  Level Estimated
09:46AM 33.4789 117.4489 220° Southwest  Level Estimated
09:47AM 33.3934 117.3633 220° Southwest  Level Estimated
09:48AM 33.3078 117.2778 220° Southwest  Level Estimated
09:49AM 33.2222 117.1925 220° Southwest  Level Estimated
09:50AM 33.1365 117.1074 220° Southwest  Level Estimated
09:51AM 33.0507 117.0224 220° Southwest  Level Estimated
09:52AM 32.9649 116.9376 220° Southwest  Level Estimated
09:53AM 32.8790 116.8530 220° Southwest  Level Estimated
09:54AM 32.7931 116.7685 220° Southwest  Level Estimated
09:55AM 32.7071 116.6842 220° Southwest  Level Estimated
09:56AM 32.6211 116.6000 219° Southwest  Level Estimated
09:57AM 32.5350 116.5161 219° Southwest  Level Estimated
09:58AM 32.4488 116.4322 219° Southwest  Level Estimated
09:59AM 32.3626 116.3486 219° Southwest  Level Estimated
10:00AM 32.2764 116.2651 219° Southwest  Level Estimated
10:01AM 32.1900 116.1817 219° Southwest  Level Estimated
10:02AM 32.1037 116.0985 219° Southwest  Level Estimated
10:03AM 32.0173 116.0155 219° Southwest  Level Estimated
10:04AM 31.9308 115.9326 219° Southwest  Level Estimated
10:05AM 31.8442 115.8499 219° Southwest  Level Estimated
10:06AM 31.7577 115.7674 219° Southwest  Level Estimated
10:07AM 31.6710 115.6850 219° Southwest  Level Estimated
10:08AM 31.5843 115.6027 219° Southwest  Level Estimated
10:09AM 31.4976 115.5206 219° Southwest  Level Estimated
10:10AM 31.4108 115.4387 219° Southwest  Level Estimated
10:11AM 31.3239 115.3568 219° Southwest  Level Estimated
10:12AM 31.2370 115.2752 219° Southwest  Level Estimated
10:13AM 31.1501 115.1937 219° Southwest  Level Estimated
10:14AM 31.0631 115.1124 219° Southwest  Level Estimated
10:15AM 30.9760 115.0312 219° Southwest  Level Estimated
10:16AM 30.8889 114.9501 219° Southwest  Level Estimated
10:17AM 30.8017 114.8692 219° Southwest  Level Estimated
10:18AM 30.7145 114.7884 219° Southwest  Level Estimated
10:19AM 30.6273 114.7078 218° Southwest  Level Estimated
10:20AM 30.5400 114.6274 218° Southwest  Level Estimated
10:21AM 30.4526 114.5470 218° Southwest  Level Estimated
10:22AM 30.3652 114.4669 218° Southwest  Level Estimated
10:23AM 30.2778 114.3868 218° Southwest  Level Estimated
10:24AM 30.1903 114.3069 218° Southwest  Level Estimated
10:25AM 30.1027 114.2272 218° Southwest  Level Estimated
10:26AM 30.0151 114.1476 218° Southwest  Level Estimated
10:27AM 29.9275 114.0681 218° Southwest  Level Estimated
10:28AM 29.8398 113.9888 218° Southwest  Level Estimated
10:29AM 29.7520 113.9096 218° Southwest  Level Estimated
10:30AM 29.6642 113.8305 218° Southwest  Level Estimated
10:31AM 29.5764 113.7516 218° Southwest  Level Estimated
10:32AM 29.4885 113.6729 218° Southwest  Level Estimated
10:33AM 29.4006 113.5942 218° Southwest  Level Estimated
10:34AM 29.3126 113.5157 218° Southwest  Level Estimated
10:35AM 29.2246 113.4373 218° Southwest  Level Estimated
10:36AM 29.1365 113.3591 218° Southwest  Level Estimated
10:37AM 29.0484 113.2810 218° Southwest  Level Estimated
10:38AM 28.9603 113.2031 218° Southwest  Level Estimated
10:39AM 28.8720 113.1252 218° Southwest  Level Estimated
10:40AM 28.7838 113.0475 218° Southwest  Level Estimated
10:41AM 28.6955 112.9700 218° Southwest  Level Estimated
10:42AM 28.6072 112.8925 218° Southwest  Level Estimated
10:43AM 28.5188 112.8152 218° Southwest  Level Estimated
10:44AM 28.4304 112.7380 218° Southwest  Level Estimated
10:45AM 28.3419 112.6610 217° Southwest  Level Estimated
10:46AM 28.2534 112.5841 217° Southwest  Level Estimated
10:47AM 28.1649 112.5073 217° Southwest  Level Estimated
10:48AM 28.0763 112.4306 217° Southwest  Level Estimated
10:49AM 27.9876 112.3541 217° Southwest  Level Estimated
10:50AM 27.8989 112.2776 217° Southwest  Level Estimated
10:51AM 27.8102 112.2014 217° Southwest  Level Estimated
10:52AM 27.7215 112.1252 217° Southwest  Level Estimated
10:53AM 27.6327 112.0492 217° Southwest  Level Estimated
10:54AM 27.5438 111.9732 217° Southwest  Level Estimated
10:55AM 27.4549 111.8975 217° Southwest  Level Estimated
10:56AM 27.3660 111.8218 217° Southwest  Level Estimated
10:57AM 27.2770 111.7462 217° Southwest  Level Estimated
10:58AM 27.1880 111.6708 217° Southwest  Level Estimated
10:59AM 27.0990 111.5955 217° Southwest  Level Estimated
11:00AM 27.0099 111.5203 217° Southwest  Level Estimated
11:01AM 26.9207 111.4452 217° Southwest  Level Estimated
11:02AM 26.8316 111.3703 217° Southwest  Level Estimated
11:03AM 26.7424 111.2954 217° Southwest  Level Estimated
11:04AM 26.6531 111.2207 217° Southwest  Level Estimated
11:05AM 26.5638 111.1461 217° Southwest  Level Estimated
11:06AM 26.4745 111.0716 217° Southwest  Level Estimated
11:07AM 26.3851 110.9973 217° Southwest  Level Estimated
11:08AM 26.2957 110.9230 217° Southwest  Level Estimated
11:09AM 26.2063 110.8489 217° Southwest  Level Estimated
11:10AM 26.1168 110.7748 217° Southwest  Level Estimated
11:11AM 26.0273 110.7009 217° Southwest  Level Estimated
11:12AM 25.9377 110.6271 217° Southwest  Level Estimated
11:13AM 25.8482 110.5534 217° Southwest  Level Estimated
11:14AM 25.7585 110.4799 216° Southwest  Level Estimated
11:15AM 25.6688 110.4064 216° Southwest  Level Estimated
11:16AM 25.5791 110.3330 216° Southwest  Level Estimated
11:17AM 25.4894 110.2598 216° Southwest  Level Estimated
11:18AM 25.3996 110.1867 216° Southwest  Level Estimated
11:19AM 25.3098 110.1136 216° Southwest  Level Estimated
11:20AM 25.2200 110.0407 216° Southwest  Level Estimated
11:21AM 25.2181 110.0392 216° Southwest  Level Estimated
11:22AM 25.2181 110.0392 214° Southwest  Level Estimated
11:23AM 25.2181 110.0392 214° Southwest  Level Estimated
11:24AM 25.2181 110.0392 214° Southwest  Level Estimated
11:25AM 25.2181 110.0392 214° Southwest  Level Estimated
11:26AM 25.2181 110.0392 214° Southwest  Level Estimated
11:27AM 25.2181 110.0392 214° Southwest  Level Estimated
11:28AM 25.2181 110.0392 214° Southwest  Level Estimated
11:29AM 25.2181 110.0392 214° Southwest  Level Estimated
11:30AM 25.2181 110.0392 214° Southwest  Level Estimated
11:31AM 25.2181 110.0392 214° Southwest  Level Estimated
11:32AM 25.2181 110.0392 214° Southwest  Level Estimated
11:33AM 25.2181 110.0392 214° Southwest  Level Estimated
11:34AM 25.2181 110.0392 214° Southwest  Level Estimated
11:35AM 25.2181 110.0392 214° Southwest  Level Estimated